sensor_id;sensor_type;location;lat;lon;timestamp;P1;durP1;ratioP1;P2;durP2;ratioP2
67696;SDS011;54486;51.442;6.778;2023-11-19T00:00:13;15.52;;;8.68;;
67696;SDS011;54486;51.442;6.778;2023-11-19T00:02:44;17.27;;;8.75;;
67696;SDS011;54486;51.442;6.778;2023-11-19T00:05:11;17.03;;;9.07;;
67696;SDS011;54486;51.442;6.778;2023-11-19T00:07:40;14.45;;;8.32;;
67696;SDS011;54486;51.442;6.778;2023-11-19T00:10:12;13.77;;;7.75;;
67696;SDS011;54486;51.442;6.778;2023-11-19T00:12:43;18.02;;;9.23;;
67696;SDS011;54486;51.442;6.778;2023-11-19T00:15:14;17.10;;;9.75;;
67696;SDS011;54486;51.442;6.778;2023-11-19T00:17:42;14.18;;;7.53;;
67696;SDS011;54486;51.442;6.778;2023-11-19T00:20:14;14.47;;;7.27;;
67696;SDS011;54486;51.442;6.778;2023-11-19T00:22:45;14.85;;;7.82;;
67696;SDS011;54486;51.442;6.778;2023-11-19T00:25:17;14.73;;;8.13;;
67696;SDS011;54486;51.442;6.778;2023-11-19T00:27:45;14.80;;;7.47;;
67696;SDS011;54486;51.442;6.778;2023-11-19T00:30:14;12.60;;;6.18;;
67696;SDS011;54486;51.442;6.778;2023-11-19T00:32:42;13.15;;;6.70;;
67696;SDS011;54486;51.442;6.778;2023-11-19T00:35:10;14.63;;;6.18;;
67696;SDS011;54486;51.442;6.778;2023-11-19T00:37:37;14.60;;;6.25;;
67696;SDS011;54486;51.442;6.778;2023-11-19T00:40:05;13.60;;;6.37;;
67696;SDS011;54486;51.442;6.778;2023-11-19T00:42:33;15.00;;;6.85;;
67696;SDS011;54486;51.442;6.778;2023-11-19T00:45:00;16.58;;;7.05;;
67696;SDS011;54486;51.442;6.778;2023-11-19T00:47:30;13.77;;;6.53;;
67696;SDS011;54486;51.442;6.778;2023-11-19T00:49:58;15.05;;;6.82;;
67696;SDS011;54486;51.442;6.778;2023-11-19T00:52:25;16.47;;;7.07;;
67696;SDS011;54486;51.442;6.778;2023-11-19T00:54:53;13.32;;;6.53;;
67696;SDS011;54486;51.442;6.778;2023-11-19T00:57:21;14.57;;;6.88;;
67696;SDS011;54486;51.442;6.778;2023-11-19T00:59:48;13.70;;;6.20;;
67696;SDS011;54486;51.442;6.778;2023-11-19T01:02:15;14.52;;;6.38;;
67696;SDS011;54486;51.442;6.778;2023-11-19T01:04:45;12.45;;;5.88;;
67696;SDS011;54486;51.442;6.778;2023-11-19T01:07:12;12.60;;;5.72;;
67696;SDS011;54486;51.442;6.778;2023-11-19T01:09:43;11.90;;;5.80;;
67696;SDS011;54486;51.442;6.778;2023-11-19T01:12:11;12.38;;;5.30;;
67696;SDS011;54486;51.442;6.778;2023-11-19T01:14:38;11.85;;;5.60;;
67696;SDS011;54486;51.442;6.778;2023-11-19T01:17:06;10.38;;;4.63;;
67696;SDS011;54486;51.442;6.778;2023-11-19T01:19:34;12.20;;;5.30;;
67696;SDS011;54486;51.442;6.778;2023-11-19T01:22:02;12.30;;;5.18;;
67696;SDS011;54486;51.442;6.778;2023-11-19T01:24:31;11.50;;;5.20;;
67696;SDS011;54486;51.442;6.778;2023-11-19T01:27:00;11.50;;;4.97;;
67696;SDS011;54486;51.442;6.778;2023-11-19T01:29:29;11.98;;;5.15;;
67696;SDS011;54486;51.442;6.778;2023-11-19T01:31:58;11.98;;;5.00;;
67696;SDS011;54486;51.442;6.778;2023-11-19T01:34:26;13.13;;;5.00;;
67696;SDS011;54486;51.442;6.778;2023-11-19T01:36:54;9.70;;;4.53;;
67696;SDS011;54486;51.442;6.778;2023-11-19T01:39:26;9.55;;;4.50;;
67696;SDS011;54486;51.442;6.778;2023-11-19T01:41:55;11.73;;;5.03;;
67696;SDS011;54486;51.442;6.778;2023-11-19T01:44:22;11.67;;;5.00;;
67696;SDS011;54486;51.442;6.778;2023-11-19T01:46:53;10.57;;;4.80;;
67696;SDS011;54486;51.442;6.778;2023-11-19T01:49:21;11.30;;;5.10;;
67696;SDS011;54486;51.442;6.778;2023-11-19T01:51:48;11.23;;;5.10;;
67696;SDS011;54486;51.442;6.778;2023-11-19T01:54:16;9.50;;;4.83;;
67696;SDS011;54486;51.442;6.778;2023-11-19T01:56:46;10.30;;;4.95;;
67696;SDS011;54486;51.442;6.778;2023-11-19T01:59:13;10.38;;;5.15;;
67696;SDS011;54486;51.442;6.778;2023-11-19T02:01:41;12.10;;;5.28;;
67696;SDS011;54486;51.442;6.778;2023-11-19T02:04:09;11.77;;;5.80;;
67696;SDS011;54486;51.442;6.778;2023-11-19T02:06:39;12.77;;;6.25;;
67696;SDS011;54486;51.442;6.778;2023-11-19T02:09:09;11.05;;;5.32;;
67696;SDS011;54486;51.442;6.778;2023-11-19T02:11:39;12.07;;;5.43;;
67696;SDS011;54486;51.442;6.778;2023-11-19T02:14:07;13.13;;;5.10;;
67696;SDS011;54486;51.442;6.778;2023-11-19T02:16:34;15.95;;;5.38;;
67696;SDS011;54486;51.442;6.778;2023-11-19T02:19:02;10.93;;;5.25;;
67696;SDS011;54486;51.442;6.778;2023-11-19T02:21:30;10.57;;;4.25;;
67696;SDS011;54486;51.442;6.778;2023-11-19T02:23:59;10.30;;;4.47;;
67696;SDS011;54486;51.442;6.778;2023-11-19T02:26:36;12.57;;;4.15;;
67696;SDS011;54486;51.442;6.778;2023-11-19T02:29:08;11.98;;;3.90;;
67696;SDS011;54486;51.442;6.778;2023-11-19T02:31:36;17.47;;;5.27;;
67696;SDS011;54486;51.442;6.778;2023-11-19T02:34:04;16.40;;;4.93;;
67696;SDS011;54486;51.442;6.778;2023-11-19T02:36:34;13.23;;;4.97;;
67696;SDS011;54486;51.442;6.778;2023-11-19T02:39:01;13.52;;;4.63;;
67696;SDS011;54486;51.442;6.778;2023-11-19T02:41:30;16.92;;;4.95;;
67696;SDS011;54486;51.442;6.778;2023-11-19T02:43:57;15.70;;;4.75;;
67696;SDS011;54486;51.442;6.778;2023-11-19T02:46:25;13.18;;;4.45;;
67696;SDS011;54486;51.442;6.778;2023-11-19T02:48:53;14.65;;;4.30;;
67696;SDS011;54486;51.442;6.778;2023-11-19T02:51:21;17.15;;;5.00;;
67696;SDS011;54486;51.442;6.778;2023-11-19T02:53:48;13.38;;;4.10;;
67696;SDS011;54486;51.442;6.778;2023-11-19T02:56:15;12.88;;;3.65;;
67696;SDS011;54486;51.442;6.778;2023-11-19T02:58:47;14.23;;;3.80;;
67696;SDS011;54486;51.442;6.778;2023-11-19T03:01:22;14.18;;;4.30;;
67696;SDS011;54486;51.442;6.778;2023-11-19T03:03:57;15.45;;;3.92;;
67696;SDS011;54486;51.442;6.778;2023-11-19T03:06:25;11.40;;;3.63;;
67696;SDS011;54486;51.442;6.778;2023-11-19T03:08:55;11.95;;;4.10;;
67696;SDS011;54486;51.442;6.778;2023-11-19T03:11:22;13.80;;;4.15;;
67696;SDS011;54486;51.442;6.778;2023-11-19T03:13:50;12.73;;;3.92;;
67696;SDS011;54486;51.442;6.778;2023-11-19T03:16:18;12.65;;;3.47;;
67696;SDS011;54486;51.442;6.778;2023-11-19T03:18:46;16.30;;;3.80;;
67696;SDS011;54486;51.442;6.778;2023-11-19T03:21:13;17.30;;;3.72;;
67696;SDS011;54486;51.442;6.778;2023-11-19T03:23:40;11.45;;;3.90;;
67696;SDS011;54486;51.442;6.778;2023-11-19T03:26:07;17.33;;;3.87;;
67696;SDS011;54486;51.442;6.778;2023-11-19T03:28:36;15.73;;;3.85;;
67696;SDS011;54486;51.442;6.778;2023-11-19T03:31:06;13.93;;;3.67;;
67696;SDS011;54486;51.442;6.778;2023-11-19T03:33:36;15.20;;;3.42;;
67696;SDS011;54486;51.442;6.778;2023-11-19T03:36:04;13.43;;;3.47;;
67696;SDS011;54486;51.442;6.778;2023-11-19T03:38:33;14.83;;;3.17;;
67696;SDS011;54486;51.442;6.778;2023-11-19T03:41:00;14.18;;;3.60;;
67696;SDS011;54486;51.442;6.778;2023-11-19T03:43:27;14.25;;;3.13;;
67696;SDS011;54486;51.442;6.778;2023-11-19T03:45:54;18.42;;;3.70;;
67696;SDS011;54486;51.442;6.778;2023-11-19T03:48:21;18.90;;;3.55;;
67696;SDS011;54486;51.442;6.778;2023-11-19T03:50:49;15.63;;;3.63;;
67696;SDS011;54486;51.442;6.778;2023-11-19T03:53:16;14.80;;;3.53;;
67696;SDS011;54486;51.442;6.778;2023-11-19T03:55:45;17.33;;;3.45;;
67696;SDS011;54486;51.442;6.778;2023-11-19T03:58:13;12.07;;;2.93;;
67696;SDS011;54486;51.442;6.778;2023-11-19T04:00:40;18.40;;;3.42;;
67696;SDS011;54486;51.442;6.778;2023-11-19T04:03:07;15.30;;;3.50;;
67696;SDS011;54486;51.442;6.778;2023-11-19T04:05:34;13.70;;;3.50;;
67696;SDS011;54486;51.442;6.778;2023-11-19T04:08:01;14.70;;;3.53;;
67696;SDS011;54486;51.442;6.778;2023-11-19T04:10:28;16.10;;;3.00;;
67696;SDS011;54486;51.442;6.778;2023-11-19T04:12:55;15.57;;;3.47;;
67696;SDS011;54486;51.442;6.778;2023-11-19T04:15:23;14.55;;;3.22;;
67696;SDS011;54486;51.442;6.778;2023-11-19T04:17:51;14.25;;;4.15;;
67696;SDS011;54486;51.442;6.778;2023-11-19T04:20:18;15.60;;;3.33;;
67696;SDS011;54486;51.442;6.778;2023-11-19T04:22:45;18.17;;;3.87;;
67696;SDS011;54486;51.442;6.778;2023-11-19T04:25:13;15.27;;;3.17;;
67696;SDS011;54486;51.442;6.778;2023-11-19T04:27:42;15.48;;;3.92;;
67696;SDS011;54486;51.442;6.778;2023-11-19T04:30:10;15.32;;;3.30;;
67696;SDS011;54486;51.442;6.778;2023-11-19T04:32:39;14.93;;;3.10;;
67696;SDS011;54486;51.442;6.778;2023-11-19T04:35:06;19.63;;;3.33;;
67696;SDS011;54486;51.442;6.778;2023-11-19T04:37:34;21.60;;;3.50;;
67696;SDS011;54486;51.442;6.778;2023-11-19T04:40:02;14.32;;;3.08;;
67696;SDS011;54486;51.442;6.778;2023-11-19T04:42:29;15.45;;;3.55;;
67696;SDS011;54486;51.442;6.778;2023-11-19T04:44:56;17.55;;;3.55;;
67696;SDS011;54486;51.442;6.778;2023-11-19T04:47:23;14.90;;;3.58;;
67696;SDS011;54486;51.442;6.778;2023-11-19T04:49:50;19.40;;;3.73;;
67696;SDS011;54486;51.442;6.778;2023-11-19T04:52:18;20.75;;;3.92;;
67696;SDS011;54486;51.442;6.778;2023-11-19T04:54:45;20.23;;;3.63;;
67696;SDS011;54486;51.442;6.778;2023-11-19T04:57:12;16.90;;;3.20;;
67696;SDS011;54486;51.442;6.778;2023-11-19T04:59:40;18.48;;;3.45;;
67696;SDS011;54486;51.442;6.778;2023-11-19T05:02:09;18.83;;;3.42;;
67696;SDS011;54486;51.442;6.778;2023-11-19T05:04:36;21.02;;;3.58;;
67696;SDS011;54486;51.442;6.778;2023-11-19T05:07:05;26.63;;;6.27;;
67696;SDS011;54486;51.442;6.778;2023-11-19T05:09:32;28.27;;;6.93;;
67696;SDS011;54486;51.442;6.778;2023-11-19T05:12:00;26.63;;;6.70;;
67696;SDS011;54486;51.442;6.778;2023-11-19T05:14:28;24.52;;;7.05;;
67696;SDS011;54486;51.442;6.778;2023-11-19T05:16:55;28.73;;;9.15;;
67696;SDS011;54486;51.442;6.778;2023-11-19T05:19:23;34.63;;;8.63;;
67696;SDS011;54486;51.442;6.778;2023-11-19T05:21:50;30.15;;;9.13;;
67696;SDS011;54486;51.442;6.778;2023-11-19T05:24:19;34.15;;;9.30;;
67696;SDS011;54486;51.442;6.778;2023-11-19T05:26:46;30.35;;;7.85;;
67696;SDS011;54486;51.442;6.778;2023-11-19T05:29:13;31.27;;;9.18;;
67696;SDS011;54486;51.442;6.778;2023-11-19T05:31:41;27.63;;;8.75;;
67696;SDS011;54486;51.442;6.778;2023-11-19T05:34:10;31.17;;;9.23;;
67696;SDS011;54486;51.442;6.778;2023-11-19T05:36:39;37.80;;;10.63;;
67696;SDS011;54486;51.442;6.778;2023-11-19T05:39:06;34.28;;;10.00;;
67696;SDS011;54486;51.442;6.778;2023-11-19T05:41:33;40.58;;;10.57;;
67696;SDS011;54486;51.442;6.778;2023-11-19T05:44:00;32.08;;;9.23;;
67696;SDS011;54486;51.442;6.778;2023-11-19T05:46:29;29.13;;;7.27;;
67696;SDS011;54486;51.442;6.778;2023-11-19T05:48:56;21.77;;;5.90;;
67696;SDS011;54486;51.442;6.778;2023-11-19T05:51:23;30.20;;;7.28;;
67696;SDS011;54486;51.442;6.778;2023-11-19T05:53:51;35.67;;;8.60;;
67696;SDS011;54486;51.442;6.778;2023-11-19T05:56:18;34.17;;;9.52;;
67696;SDS011;54486;51.442;6.778;2023-11-19T05:58:48;36.60;;;11.13;;
67696;SDS011;54486;51.442;6.778;2023-11-19T06:01:16;31.90;;;9.50;;
67696;SDS011;54486;51.442;6.778;2023-11-19T06:03:44;34.30;;;7.90;;
67696;SDS011;54486;51.442;6.778;2023-11-19T06:06:16;26.17;;;6.35;;
67696;SDS011;54486;51.442;6.778;2023-11-19T06:08:43;22.90;;;5.75;;
67696;SDS011;54486;51.442;6.778;2023-11-19T06:11:11;35.17;;;7.38;;
67696;SDS011;54486;51.442;6.778;2023-11-19T06:13:45;25.63;;;6.55;;
67696;SDS011;54486;51.442;6.778;2023-11-19T06:16:13;33.33;;;7.97;;
67696;SDS011;54486;51.442;6.778;2023-11-19T06:18:40;29.83;;;7.93;;
67696;SDS011;54486;51.442;6.778;2023-11-19T06:21:08;34.15;;;9.27;;
67696;SDS011;54486;51.442;6.778;2023-11-19T06:23:35;31.83;;;8.70;;
67696;SDS011;54486;51.442;6.778;2023-11-19T06:26:03;33.40;;;8.07;;
67696;SDS011;54486;51.442;6.778;2023-11-19T06:28:31;29.37;;;7.73;;
67696;SDS011;54486;51.442;6.778;2023-11-19T06:30:58;28.98;;;5.85;;
67696;SDS011;54486;51.442;6.778;2023-11-19T06:33:26;19.75;;;4.63;;
67696;SDS011;54486;51.442;6.778;2023-11-19T06:35:54;26.98;;;5.00;;
67696;SDS011;54486;51.442;6.778;2023-11-19T06:38:21;22.50;;;3.90;;
67696;SDS011;54486;51.442;6.778;2023-11-19T06:40:48;21.90;;;4.00;;
67696;SDS011;54486;51.442;6.778;2023-11-19T06:43:20;18.53;;;3.43;;
67696;SDS011;54486;51.442;6.778;2023-11-19T06:45:48;21.67;;;3.95;;
67696;SDS011;54486;51.442;6.778;2023-11-19T06:48:16;17.83;;;3.50;;
67696;SDS011;54486;51.442;6.778;2023-11-19T06:50:43;20.02;;;3.30;;
67696;SDS011;54486;51.442;6.778;2023-11-19T06:53:11;19.10;;;3.88;;
67696;SDS011;54486;51.442;6.778;2023-11-19T06:55:38;17.43;;;3.33;;
67696;SDS011;54486;51.442;6.778;2023-11-19T06:58:05;22.55;;;4.00;;
67696;SDS011;54486;51.442;6.778;2023-11-19T07:00:32;21.20;;;3.70;;
67696;SDS011;54486;51.442;6.778;2023-11-19T07:02:59;22.55;;;3.10;;
67696;SDS011;54486;51.442;6.778;2023-11-19T07:05:27;18.63;;;3.75;;
67696;SDS011;54486;51.442;6.778;2023-11-19T07:07:55;24.55;;;4.10;;
67696;SDS011;54486;51.442;6.778;2023-11-19T07:10:23;19.30;;;4.05;;
67696;SDS011;54486;51.442;6.778;2023-11-19T07:12:50;23.50;;;3.75;;
67696;SDS011;54486;51.442;6.778;2023-11-19T07:15:17;19.10;;;3.50;;
67696;SDS011;54486;51.442;6.778;2023-11-19T07:17:44;24.90;;;4.20;;
67696;SDS011;54486;51.442;6.778;2023-11-19T07:20:12;19.02;;;3.85;;
67696;SDS011;54486;51.442;6.778;2023-11-19T07:22:45;18.17;;;3.15;;
67696;SDS011;54486;51.442;6.778;2023-11-19T07:25:13;22.42;;;4.28;;
67696;SDS011;54486;51.442;6.778;2023-11-19T07:27:40;22.65;;;4.18;;
67696;SDS011;54486;51.442;6.778;2023-11-19T07:30:07;22.37;;;4.00;;
67696;SDS011;54486;51.442;6.778;2023-11-19T07:32:34;21.10;;;3.90;;
67696;SDS011;54486;51.442;6.778;2023-11-19T07:35:02;23.17;;;3.43;;
67696;SDS011;54486;51.442;6.778;2023-11-19T07:37:29;18.70;;;3.58;;
67696;SDS011;54486;51.442;6.778;2023-11-19T07:39:56;26.20;;;4.10;;
67696;SDS011;54486;51.442;6.778;2023-11-19T07:42:23;17.73;;;3.30;;
67696;SDS011;54486;51.442;6.778;2023-11-19T07:44:51;21.48;;;3.67;;
67696;SDS011;54486;51.442;6.778;2023-11-19T07:47:18;22.08;;;4.28;;
67696;SDS011;54486;51.442;6.778;2023-11-19T07:49:45;18.25;;;3.47;;
67696;SDS011;54486;51.442;6.778;2023-11-19T07:52:12;20.50;;;3.80;;
67696;SDS011;54486;51.442;6.778;2023-11-19T07:54:42;20.38;;;3.60;;
67696;SDS011;54486;51.442;6.778;2023-11-19T07:57:10;19.70;;;3.20;;
67696;SDS011;54486;51.442;6.778;2023-11-19T07:59:37;20.23;;;3.70;;
67696;SDS011;54486;51.442;6.778;2023-11-19T08:02:04;21.17;;;3.70;;
67696;SDS011;54486;51.442;6.778;2023-11-19T08:04:32;21.75;;;4.18;;
67696;SDS011;54486;51.442;6.778;2023-11-19T08:06:59;24.83;;;4.40;;
67696;SDS011;54486;51.442;6.778;2023-11-19T08:09:26;20.10;;;4.78;;
67696;SDS011;54486;51.442;6.778;2023-11-19T08:11:54;39.90;;;7.82;;
67696;SDS011;54486;51.442;6.778;2023-11-19T08:14:23;59.22;;;11.85;;
67696;SDS011;54486;51.442;6.778;2023-11-19T08:16:51;42.17;;;9.80;;
67696;SDS011;54486;51.442;6.778;2023-11-19T08:19:18;35.28;;;8.93;;
67696;SDS011;54486;51.442;6.778;2023-11-19T08:21:46;33.67;;;8.93;;
67696;SDS011;54486;51.442;6.778;2023-11-19T08:24:13;26.37;;;6.00;;
67696;SDS011;54486;51.442;6.778;2023-11-19T08:26:40;25.87;;;6.97;;
67696;SDS011;54486;51.442;6.778;2023-11-19T08:29:08;28.87;;;7.50;;
67696;SDS011;54486;51.442;6.778;2023-11-19T08:31:35;29.55;;;7.32;;
67696;SDS011;54486;51.442;6.778;2023-11-19T08:34:03;29.95;;;7.13;;
67696;SDS011;54486;51.442;6.778;2023-11-19T08:36:30;32.60;;;6.85;;
67696;SDS011;54486;51.442;6.778;2023-11-19T08:38:59;27.20;;;6.55;;
67696;SDS011;54486;51.442;6.778;2023-11-19T08:41:26;28.93;;;7.97;;
67696;SDS011;54486;51.442;6.778;2023-11-19T08:43:54;28.93;;;6.20;;
67696;SDS011;54486;51.442;6.778;2023-11-19T08:46:20;28.50;;;6.60;;
67696;SDS011;54486;51.442;6.778;2023-11-19T08:48:47;27.10;;;5.63;;
67696;SDS011;54486;51.442;6.778;2023-11-19T08:51:15;26.92;;;6.20;;
67696;SDS011;54486;51.442;6.778;2023-11-19T08:53:42;24.70;;;5.50;;
67696;SDS011;54486;51.442;6.778;2023-11-19T08:56:10;21.27;;;4.88;;
67696;SDS011;54486;51.442;6.778;2023-11-19T08:58:37;20.70;;;4.38;;
67696;SDS011;54486;51.442;6.778;2023-11-19T09:01:04;22.43;;;4.43;;
67696;SDS011;54486;51.442;6.778;2023-11-19T09:03:32;28.48;;;4.85;;
67696;SDS011;54486;51.442;6.778;2023-11-19T09:06:00;22.55;;;5.05;;
67696;SDS011;54486;51.442;6.778;2023-11-19T09:08:27;23.40;;;5.60;;
67696;SDS011;54486;51.442;6.778;2023-11-19T09:10:54;30.33;;;5.95;;
67696;SDS011;54486;51.442;6.778;2023-11-19T09:13:21;26.02;;;6.85;;
67696;SDS011;54486;51.442;6.778;2023-11-19T09:15:49;20.60;;;5.05;;
67696;SDS011;54486;51.442;6.778;2023-11-19T09:18:16;25.75;;;5.85;;
67696;SDS011;54486;51.442;6.778;2023-11-19T09:20:43;30.63;;;6.93;;
67696;SDS011;54486;51.442;6.778;2023-11-19T09:23:11;30.10;;;6.50;;
67696;SDS011;54486;51.442;6.778;2023-11-19T09:25:39;23.67;;;4.90;;
67696;SDS011;54486;51.442;6.778;2023-11-19T09:28:09;22.77;;;4.75;;
67696;SDS011;54486;51.442;6.778;2023-11-19T09:30:36;23.85;;;4.00;;
67696;SDS011;54486;51.442;6.778;2023-11-19T09:33:03;28.15;;;4.47;;
67696;SDS011;54486;51.442;6.778;2023-11-19T09:35:30;20.98;;;4.25;;
67696;SDS011;54486;51.442;6.778;2023-11-19T09:37:58;20.38;;;4.22;;
67696;SDS011;54486;51.442;6.778;2023-11-19T09:40:28;26.77;;;4.72;;
67696;SDS011;54486;51.442;6.778;2023-11-19T09:42:55;20.45;;;3.67;;
67696;SDS011;54486;51.442;6.778;2023-11-19T09:45:23;20.35;;;4.00;;
67696;SDS011;54486;51.442;6.778;2023-11-19T09:47:54;23.17;;;4.43;;
67696;SDS011;54486;51.442;6.778;2023-11-19T09:50:24;22.75;;;3.85;;
67696;SDS011;54486;51.442;6.778;2023-11-19T09:52:51;21.40;;;3.80;;
67696;SDS011;54486;51.442;6.778;2023-11-19T09:55:18;22.23;;;4.13;;
67696;SDS011;54486;51.442;6.778;2023-11-19T09:57:45;23.90;;;4.18;;
67696;SDS011;54486;51.442;6.778;2023-11-19T10:00:13;20.33;;;3.83;;
67696;SDS011;54486;51.442;6.778;2023-11-19T10:02:43;22.05;;;3.80;;
67696;SDS011;54486;51.442;6.778;2023-11-19T10:05:14;24.40;;;3.85;;
67696;SDS011;54486;51.442;6.778;2023-11-19T10:07:41;19.65;;;3.97;;
67696;SDS011;54486;51.442;6.778;2023-11-19T10:10:10;25.08;;;4.70;;
67696;SDS011;54486;51.442;6.778;2023-11-19T10:12:40;20.65;;;4.15;;
67696;SDS011;54486;51.442;6.778;2023-11-19T10:15:24;26.83;;;4.38;;
67696;SDS011;54486;51.442;6.778;2023-11-19T10:17:55;24.42;;;4.07;;
67696;SDS011;54486;51.442;6.778;2023-11-19T10:20:23;25.45;;;4.82;;
67696;SDS011;54486;51.442;6.778;2023-11-19T10:22:53;23.13;;;4.18;;
67696;SDS011;54486;51.442;6.778;2023-11-19T10:25:22;22.23;;;4.00;;
67696;SDS011;54486;51.442;6.778;2023-11-19T10:27:50;22.50;;;4.45;;
67696;SDS011;54486;51.442;6.778;2023-11-19T10:30:22;24.05;;;4.15;;
67696;SDS011;54486;51.442;6.778;2023-11-19T10:35:33;25.03;;;4.40;;
67696;SDS011;54486;51.442;6.778;2023-11-19T10:38:24;20.75;;;4.32;;
67696;SDS011;54486;51.442;6.778;2023-11-19T10:40:54;22.25;;;3.60;;
67696;SDS011;54486;51.442;6.778;2023-11-19T10:43:22;22.58;;;3.72;;
67696;SDS011;54486;51.442;6.778;2023-11-19T10:45:50;23.60;;;3.88;;
67696;SDS011;54486;51.442;6.778;2023-11-19T10:48:18;21.08;;;4.10;;
67696;SDS011;54486;51.442;6.778;2023-11-19T10:50:48;23.58;;;3.67;;
67696;SDS011;54486;51.442;6.778;2023-11-19T10:53:20;19.63;;;3.53;;
67696;SDS011;54486;51.442;6.778;2023-11-19T10:55:49;24.83;;;4.57;;
67696;SDS011;54486;51.442;6.778;2023-11-19T10:58:17;18.88;;;3.58;;
67696;SDS011;54486;51.442;6.778;2023-11-19T11:00:46;18.02;;;3.95;;
67696;SDS011;54486;51.442;6.778;2023-11-19T11:03:17;20.30;;;3.80;;
67696;SDS011;54486;51.442;6.778;2023-11-19T11:05:49;16.15;;;3.22;;
67696;SDS011;54486;51.442;6.778;2023-11-19T11:08:17;19.65;;;4.07;;
67696;SDS011;54486;51.442;6.778;2023-11-19T11:10:46;16.33;;;3.40;;
67696;SDS011;54486;51.442;6.778;2023-11-19T11:13:24;21.73;;;4.15;;
67696;SDS011;54486;51.442;6.778;2023-11-19T11:15:51;24.05;;;4.82;;
67696;SDS011;54486;51.442;6.778;2023-11-19T11:18:20;23.00;;;5.13;;
67696;SDS011;54486;51.442;6.778;2023-11-19T11:20:48;19.90;;;4.60;;
67696;SDS011;54486;51.442;6.778;2023-11-19T11:34:27;22.25;;;5.00;;
67696;SDS011;54486;51.442;6.778;2023-11-19T11:39:37;22.15;;;4.22;;
67696;SDS011;54486;51.442;6.778;2023-11-19T11:42:53;26.35;;;6.25;;
67696;SDS011;54486;51.442;6.778;2023-11-19T11:55:26;22.90;;;5.40;;
67696;SDS011;54486;51.442;6.778;2023-11-19T11:57:57;22.67;;;4.72;;
67696;SDS011;54486;51.442;6.778;2023-11-19T12:00:32;22.73;;;5.45;;
67696;SDS011;54486;51.442;6.778;2023-11-19T12:03:04;24.83;;;5.72;;
67696;SDS011;54486;51.442;6.778;2023-11-19T12:05:43;24.88;;;6.05;;
67696;SDS011;54486;51.442;6.778;2023-11-19T12:08:14;19.75;;;4.35;;
67696;SDS011;54486;51.442;6.778;2023-11-19T12:10:51;15.45;;;3.88;;
67696;SDS011;54486;51.442;6.778;2023-11-19T12:13:21;17.97;;;4.27;;
67696;SDS011;54486;51.442;6.778;2023-11-19T12:18:28;20.02;;;3.83;;
67696;SDS011;54486;51.442;6.778;2023-11-19T12:20:58;18.05;;;3.45;;
67696;SDS011;54486;51.442;6.778;2023-11-19T12:23:30;17.10;;;3.70;;
67696;SDS011;54486;51.442;6.778;2023-11-19T12:25:58;16.60;;;3.33;;
67696;SDS011;54486;51.442;6.778;2023-11-19T12:28:26;16.73;;;3.72;;
67696;SDS011;54486;51.442;6.778;2023-11-19T12:30:54;18.42;;;3.97;;
67696;SDS011;54486;51.442;6.778;2023-11-19T12:33:36;18.20;;;3.35;;
67696;SDS011;54486;51.442;6.778;2023-11-19T12:36:04;15.52;;;3.47;;
67696;SDS011;54486;51.442;6.778;2023-11-19T12:38:32;16.57;;;3.27;;
67696;SDS011;54486;51.442;6.778;2023-11-19T12:41:06;20.30;;;4.00;;
67696;SDS011;54486;51.442;6.778;2023-11-19T12:43:35;24.60;;;5.88;;
67696;SDS011;54486;51.442;6.778;2023-11-19T12:46:16;23.25;;;5.07;;
67696;SDS011;54486;51.442;6.778;2023-11-19T12:48:47;18.65;;;4.43;;
67696;SDS011;54486;51.442;6.778;2023-11-19T12:51:15;20.52;;;4.95;;
67696;SDS011;54486;51.442;6.778;2023-11-19T12:53:52;19.83;;;4.07;;
67696;SDS011;54486;51.442;6.778;2023-11-19T12:56:25;23.50;;;5.10;;
67696;SDS011;54486;51.442;6.778;2023-11-19T12:58:52;21.85;;;5.03;;
67696;SDS011;54486;51.442;6.778;2023-11-19T13:01:20;19.50;;;4.93;;
67696;SDS011;54486;51.442;6.778;2023-11-19T13:03:48;19.88;;;4.90;;
67696;SDS011;54486;51.442;6.778;2023-11-19T13:06:18;14.98;;;3.65;;
67696;SDS011;54486;51.442;6.778;2023-11-19T13:08:49;15.45;;;3.70;;
67696;SDS011;54486;51.442;6.778;2023-11-19T13:11:32;21.38;;;4.95;;
67696;SDS011;54486;51.442;6.778;2023-11-19T13:14:01;18.52;;;3.60;;
67696;SDS011;54486;51.442;6.778;2023-11-19T13:16:31;17.35;;;3.83;;
67696;SDS011;54486;51.442;6.778;2023-11-19T13:18:59;17.10;;;3.58;;
67696;SDS011;54486;51.442;6.778;2023-11-19T13:21:28;19.88;;;3.85;;
67696;SDS011;54486;51.442;6.778;2023-11-19T13:23:56;15.75;;;3.00;;
67696;SDS011;54486;51.442;6.778;2023-11-19T13:26:23;15.30;;;3.47;;
67696;SDS011;54486;51.442;6.778;2023-11-19T13:28:51;16.43;;;3.50;;
67696;SDS011;54486;51.442;6.778;2023-11-19T13:31:18;16.58;;;3.42;;
67696;SDS011;54486;51.442;6.778;2023-11-19T13:33:46;18.35;;;4.47;;
67696;SDS011;54486;51.442;6.778;2023-11-19T13:36:14;20.55;;;4.65;;
67696;SDS011;54486;51.442;6.778;2023-11-19T13:38:43;24.05;;;5.28;;
67696;SDS011;54486;51.442;6.778;2023-11-19T13:41:14;24.00;;;6.00;;
67696;SDS011;54486;51.442;6.778;2023-11-19T13:43:41;18.80;;;4.30;;
67696;SDS011;54486;51.442;6.778;2023-11-19T13:46:09;17.38;;;5.07;;
67696;SDS011;54486;51.442;6.778;2023-11-19T13:48:39;16.83;;;4.27;;
67696;SDS011;54486;51.442;6.778;2023-11-19T13:51:06;18.58;;;4.15;;
67696;SDS011;54486;51.442;6.778;2023-11-19T13:53:33;16.40;;;4.07;;
67696;SDS011;54486;51.442;6.778;2023-11-19T13:56:03;18.15;;;3.42;;
67696;SDS011;54486;51.442;6.778;2023-11-19T13:58:31;17.40;;;4.10;;
67696;SDS011;54486;51.442;6.778;2023-11-19T14:00:58;19.80;;;4.05;;
67696;SDS011;54486;51.442;6.778;2023-11-19T14:03:25;17.50;;;3.90;;
67696;SDS011;54486;51.442;6.778;2023-11-19T14:05:53;15.95;;;3.60;;
67696;SDS011;54486;51.442;6.778;2023-11-19T14:08:22;17.15;;;3.72;;
67696;SDS011;54486;51.442;6.778;2023-11-19T14:10:52;13.48;;;3.10;;
67696;SDS011;54486;51.442;6.778;2023-11-19T14:13:23;16.58;;;3.65;;
67696;SDS011;54486;51.442;6.778;2023-11-19T14:15:51;15.25;;;3.78;;
67696;SDS011;54486;51.442;6.778;2023-11-19T14:18:18;19.03;;;3.03;;
67696;SDS011;54486;51.442;6.778;2023-11-19T14:20:45;18.70;;;3.72;;
67696;SDS011;54486;51.442;6.778;2023-11-19T14:23:12;17.92;;;3.55;;
67696;SDS011;54486;51.442;6.778;2023-11-19T14:25:40;16.15;;;3.53;;
67696;SDS011;54486;51.442;6.778;2023-11-19T14:28:07;20.95;;;3.90;;
67696;SDS011;54486;51.442;6.778;2023-11-19T14:30:34;18.42;;;3.88;;
67696;SDS011;54486;51.442;6.778;2023-11-19T14:33:02;16.15;;;4.13;;
67696;SDS011;54486;51.442;6.778;2023-11-19T14:35:31;20.90;;;4.10;;
67696;SDS011;54486;51.442;6.778;2023-11-19T14:38:00;17.88;;;4.07;;
67696;SDS011;54486;51.442;6.778;2023-11-19T14:40:31;18.37;;;3.77;;
67696;SDS011;54486;51.442;6.778;2023-11-19T14:43:01;16.45;;;4.07;;
67696;SDS011;54486;51.442;6.778;2023-11-19T14:45:29;21.80;;;4.68;;
67696;SDS011;54486;51.442;6.778;2023-11-19T14:48:07;22.90;;;5.47;;
67696;SDS011;54486;51.442;6.778;2023-11-19T14:50:35;20.35;;;5.45;;
67696;SDS011;54486;51.442;6.778;2023-11-19T14:53:03;22.08;;;4.80;;
67696;SDS011;54486;51.442;6.778;2023-11-19T14:55:31;20.13;;;4.60;;
67696;SDS011;54486;51.442;6.778;2023-11-19T14:57:59;18.33;;;4.53;;
67696;SDS011;54486;51.442;6.778;2023-11-19T15:00:35;14.30;;;3.40;;
67696;SDS011;54486;51.442;6.778;2023-11-19T15:03:03;16.15;;;3.40;;
67696;SDS011;54486;51.442;6.778;2023-11-19T15:05:30;16.13;;;3.88;;
67696;SDS011;54486;51.442;6.778;2023-11-19T15:07:59;18.60;;;3.80;;
67696;SDS011;54486;51.442;6.778;2023-11-19T15:10:28;15.43;;;3.47;;